Celebrity Mercury — 9HJG9 — position and weather

sailwx.info

Track history (hours):
 
Tides and Currents Weather Stations Pressure Air Temp Water Temp Dewpoint Dewpoint Depression Visibility Wind Speed Wind Dir Waves Ship Positions

Celebrity Mercury

Last reported at 2017-May-28 01:32 UTC. Time now 2017-May-28 06:44 UTC.
Position N 35°54' E 014°31'.

Length 264 m; draft 8.5 m.

Type: Passenger vessel. MMSI: 249053000.

Date/timePositionNaut miles runAvg speedWind from/ knotsBaromVisibWave heightAir tempDewpointWater temp
2017-May-28 01:32N 35°54' E 014°31'0 5.7
2017-May-28 01:30N 35°54' E 014°31'4 7.1
2017-May-28 01:00N 35°56' E 014°35'713.4
2017-May-28 00:30N 36°01' E 014°40'714.0
2017-May-27 23:59N 36°06' E 014°47'714.2
2017-May-27 23:30N 36°11' E 014°52'714.3
2017-May-27 23:00N 36°17' E 014°58'814.0
2017-May-27 22:26N 36°23' E 015°04'7314.5
2017-May-27 17:23N 37°20' E 016°02'815.8
2017-May-27 16:51N 37°27' E 016°08'  
2017-May-21 22:43N 36°03' E 014°57'313.1
2017-May-21 22:31N 36°03' E 014°54'612.6
2017-May-21 22:00N 36°00' E 014°47'612.6
2017-May-21 21:30N 35°57' E 014°40'612.3
2017-May-21 21:00N 35°55' E 014°33'1 0.1
2017-May-21 01:32N 35°54' E 014°31'0 7.6
2017-May-21 01:30N 35°54' E 014°31'5 8.9
2017-May-21 01:00N 35°56' E 014°36'816.0
2017-May-21 00:30N 36°02' E 014°43'90 4.7
2017-May-20 05:14N 37°30' E 015°06'2713.2
2017-May-20 03:10N 37°24' E 015°40'1816.1
2017-May-20 02:03N 37°20' E 016°02'315.9
2017-May-20 01:52N 37°19' E 016°05'1116.1
2017-May-20 01:09N 37°17' E 016°19'316.2
2017-May-20 00:58N 37°17' E 016°23'816.4
2017-May-20 00:30N 37°15' E 016°32'  
Track history (hours):
 
Tides and Currents Weather Stations Pressure Air Temp Water Temp Dewpoint Dewpoint Depression Visibility Wind Speed Wind Dir Waves Ship Positions

Celebrity Mercury

Last reported at 2017-May-28 01:32 UTC. Time now 2017-May-28 06:44 UTC.
Position N 35°54' E 014°31'.

Length 264 m; draft 8.5 m.

Type: Passenger vessel. MMSI: 249053000.

Date/timePositionNaut miles runAvg speedWind from/ knotsBaromVisibWave heightAir tempDewpointWater temp
2017-May-28 01:32N 35°54' E 014°31'0 5.7
2017-May-28 01:30N 35°54' E 014°31'4 7.1
2017-May-28 01:00N 35°56' E 014°35'713.4
2017-May-28 00:30N 36°01' E 014°40'714.0
2017-May-27 23:59N 36°06' E 014°47'714.2
2017-May-27 23:30N 36°11' E 014°52'714.3
2017-May-27 23:00N 36°17' E 014°58'814.0
2017-May-27 22:26N 36°23' E 015°04'7314.5
2017-May-27 17:23N 37°20' E 016°02'815.8
2017-May-27 16:51N 37°27' E 016°08'  
2017-May-21 22:43N 36°03' E 014°57'313.1
2017-May-21 22:31N 36°03' E 014°54'612.6
2017-May-21 22:00N 36°00' E 014°47'612.6
2017-May-21 21:30N 35°57' E 014°40'612.3
2017-May-21 21:00N 35°55' E 014°33'1 0.1
2017-May-21 01:32N 35°54' E 014°31'0 7.6
2017-May-21 01:30N 35°54' E 014°31'5 8.9
2017-May-21 01:00N 35°56' E 014°36'816.0
2017-May-21 00:30N 36°02' E 014°43'90 4.7
2017-May-20 05:14N 37°30' E 015°06'2713.2
2017-May-20 03:10N 37°24' E 015°40'1816.1
2017-May-20 02:03N 37°20' E 016°02'315.9
2017-May-20 01:52N 37°19' E 016°05'1116.1
2017-May-20 01:09N 37°17' E 016°19'316.2
2017-May-20 00:58N 37°17' E 016°23'816.4
2017-May-20 00:30N 37°15' E 016°32'  

Dump ship's entire track history